sensor_id;sensor_type;location;lat;lon;timestamp;P1;durP1;ratioP1;P2;durP2;ratioP2
65018;SDS011;66069;51.164;-114.452;2023-07-31T00:00:27;15.98;;;8.30;;
65018;SDS011;66069;51.164;-114.452;2023-07-31T00:02:53;20.65;;;9.18;;
65018;SDS011;66069;51.164;-114.452;2023-07-31T00:05:19;26.40;;;11.00;;
65018;SDS011;66069;51.164;-114.452;2023-07-31T00:07:45;26.10;;;10.88;;
65018;SDS011;66069;51.164;-114.452;2023-07-31T00:10:11;27.88;;;11.52;;
65018;SDS011;66069;51.164;-114.452;2023-07-31T00:12:43;22.70;;;11.13;;
65018;SDS011;66069;51.164;-114.452;2023-07-31T00:15:09;21.13;;;9.93;;
65018;SDS011;66069;51.164;-114.452;2023-07-31T00:17:36;17.95;;;9.73;;
65018;SDS011;66069;51.164;-114.452;2023-07-31T00:20:01;19.95;;;9.48;;
65018;SDS011;66069;51.164;-114.452;2023-07-31T00:22:27;17.75;;;9.38;;
65018;SDS011;66069;51.164;-114.452;2023-07-31T00:24:53;21.38;;;10.57;;
65018;SDS011;66069;51.164;-114.452;2023-07-31T00:27:19;18.38;;;8.52;;
65018;SDS011;66069;51.164;-114.452;2023-07-31T00:29:45;14.50;;;8.65;;
65018;SDS011;66069;51.164;-114.452;2023-07-31T00:32:11;15.75;;;8.80;;
65018;SDS011;66069;51.164;-114.452;2023-07-31T00:34:37;21.67;;;9.73;;
65018;SDS011;66069;51.164;-114.452;2023-07-31T00:37:03;15.32;;;8.65;;
65018;SDS011;66069;51.164;-114.452;2023-07-31T00:39:29;18.10;;;9.30;;
65018;SDS011;66069;51.164;-114.452;2023-07-31T00:41:59;20.27;;;10.52;;
65018;SDS011;66069;51.164;-114.452;2023-07-31T00:44:25;23.85;;;12.63;;
65018;SDS011;66069;51.164;-114.452;2023-07-31T00:46:50;22.15;;;11.60;;
65018;SDS011;66069;51.164;-114.452;2023-07-31T00:49:16;22.15;;;12.00;;
65018;SDS011;66069;51.164;-114.452;2023-07-31T00:51:42;21.73;;;11.30;;
65018;SDS011;66069;51.164;-114.452;2023-07-31T00:54:10;22.65;;;11.20;;
65018;SDS011;66069;51.164;-114.452;2023-07-31T00:56:36;24.50;;;11.93;;
65018;SDS011;66069;51.164;-114.452;2023-07-31T00:59:06;21.50;;;11.27;;
65018;SDS011;66069;51.164;-114.452;2023-07-31T01:01:31;21.73;;;11.63;;
65018;SDS011;66069;51.164;-114.452;2023-07-31T01:03:57;25.15;;;12.55;;
65018;SDS011;66069;51.164;-114.452;2023-07-31T01:06:27;26.02;;;13.73;;
65018;SDS011;66069;51.164;-114.452;2023-07-31T01:08:58;24.13;;;12.52;;
65018;SDS011;66069;51.164;-114.452;2023-07-31T01:11:27;25.58;;;12.00;;
65018;SDS011;66069;51.164;-114.452;2023-07-31T01:13:54;23.42;;;12.43;;
65018;SDS011;66069;51.164;-114.452;2023-07-31T01:16:20;22.35;;;11.90;;
65018;SDS011;66069;51.164;-114.452;2023-07-31T01:18:46;22.70;;;11.90;;
65018;SDS011;66069;51.164;-114.452;2023-07-31T01:21:18;23.58;;;12.35;;
65018;SDS011;66069;51.164;-114.452;2023-07-31T01:26:33;20.80;;;12.13;;
65018;SDS011;66069;51.164;-114.452;2023-07-31T01:29:10;27.02;;;12.98;;
65018;SDS011;66069;51.164;-114.452;2023-07-31T01:31:39;24.75;;;13.65;;
65018;SDS011;66069;51.164;-114.452;2023-07-31T01:34:06;25.55;;;13.95;;
65018;SDS011;66069;51.164;-114.452;2023-07-31T01:36:32;22.73;;;12.45;;
65018;SDS011;66069;51.164;-114.452;2023-07-31T01:39:01;24.88;;;13.15;;
65018;SDS011;66069;51.164;-114.452;2023-07-31T01:41:27;20.60;;;12.45;;
65018;SDS011;66069;51.164;-114.452;2023-07-31T01:43:53;20.75;;;11.68;;
65018;SDS011;66069;51.164;-114.452;2023-07-31T01:46:19;19.15;;;11.82;;
65018;SDS011;66069;51.164;-114.452;2023-07-31T01:48:45;23.75;;;12.82;;
65018;SDS011;66069;51.164;-114.452;2023-07-31T01:51:11;18.52;;;11.57;;
65018;SDS011;66069;51.164;-114.452;2023-07-31T01:53:36;22.02;;;13.13;;
65018;SDS011;66069;51.164;-114.452;2023-07-31T01:56:02;22.67;;;12.55;;
65018;SDS011;66069;51.164;-114.452;2023-07-31T01:58:28;22.45;;;12.30;;
65018;SDS011;66069;51.164;-114.452;2023-07-31T02:00:54;21.02;;;11.85;;
65018;SDS011;66069;51.164;-114.452;2023-07-31T02:03:20;21.70;;;11.70;;
65018;SDS011;66069;51.164;-114.452;2023-07-31T02:05:46;24.20;;;12.10;;
65018;SDS011;66069;51.164;-114.452;2023-07-31T02:08:12;20.17;;;11.80;;
65018;SDS011;66069;51.164;-114.452;2023-07-31T02:10:38;22.83;;;13.00;;
65018;SDS011;66069;51.164;-114.452;2023-07-31T02:13:04;21.65;;;12.57;;
65018;SDS011;66069;51.164;-114.452;2023-07-31T02:15:30;22.17;;;12.23;;
65018;SDS011;66069;51.164;-114.452;2023-07-31T02:17:56;19.73;;;11.27;;
65018;SDS011;66069;51.164;-114.452;2023-07-31T02:20:22;21.45;;;12.65;;
65018;SDS011;66069;51.164;-114.452;2023-07-31T02:22:48;21.92;;;12.25;;
65018;SDS011;66069;51.164;-114.452;2023-07-31T02:25:14;19.92;;;12.40;;
65018;SDS011;66069;51.164;-114.452;2023-07-31T02:27:39;22.83;;;12.43;;
65018;SDS011;66069;51.164;-114.452;2023-07-31T02:30:06;20.25;;;12.70;;
65018;SDS011;66069;51.164;-114.452;2023-07-31T02:32:32;23.15;;;12.93;;
65018;SDS011;66069;51.164;-114.452;2023-07-31T02:34:57;20.10;;;12.30;;
65018;SDS011;66069;51.164;-114.452;2023-07-31T02:37:23;23.33;;;13.98;;
65018;SDS011;66069;51.164;-114.452;2023-07-31T02:39:49;22.00;;;12.32;;
65018;SDS011;66069;51.164;-114.452;2023-07-31T02:42:15;20.23;;;12.52;;
65018;SDS011;66069;51.164;-114.452;2023-07-31T02:44:41;19.52;;;12.65;;
65018;SDS011;66069;51.164;-114.452;2023-07-31T02:47:07;21.23;;;12.18;;
65018;SDS011;66069;51.164;-114.452;2023-07-31T02:49:32;23.25;;;12.95;;
65018;SDS011;66069;51.164;-114.452;2023-07-31T02:51:58;20.63;;;12.93;;
65018;SDS011;66069;51.164;-114.452;2023-07-31T02:54:24;21.00;;;11.90;;
65018;SDS011;66069;51.164;-114.452;2023-07-31T02:56:50;20.83;;;11.88;;
65018;SDS011;66069;51.164;-114.452;2023-07-31T02:59:16;18.50;;;11.50;;
65018;SDS011;66069;51.164;-114.452;2023-07-31T03:01:42;21.27;;;12.20;;
65018;SDS011;66069;51.164;-114.452;2023-07-31T03:04:08;19.52;;;11.73;;
65018;SDS011;66069;51.164;-114.452;2023-07-31T03:06:34;17.83;;;11.32;;
65018;SDS011;66069;51.164;-114.452;2023-07-31T03:09:00;18.92;;;11.88;;
65018;SDS011;66069;51.164;-114.452;2023-07-31T03:11:26;21.30;;;12.25;;
65018;SDS011;66069;51.164;-114.452;2023-07-31T03:13:51;21.95;;;12.38;;
65018;SDS011;66069;51.164;-114.452;2023-07-31T03:16:17;21.58;;;12.20;;
65018;SDS011;66069;51.164;-114.452;2023-07-31T03:18:43;20.13;;;12.07;;
65018;SDS011;66069;51.164;-114.452;2023-07-31T03:21:09;20.55;;;11.30;;
65018;SDS011;66069;51.164;-114.452;2023-07-31T03:23:35;20.13;;;12.38;;
65018;SDS011;66069;51.164;-114.452;2023-07-31T03:26:01;20.60;;;12.25;;
65018;SDS011;66069;51.164;-114.452;2023-07-31T03:28:30;19.42;;;12.10;;
65018;SDS011;66069;51.164;-114.452;2023-07-31T03:30:56;20.13;;;11.85;;
65018;SDS011;66069;51.164;-114.452;2023-07-31T03:33:22;19.88;;;12.07;;
65018;SDS011;66069;51.164;-114.452;2023-07-31T03:35:48;20.20;;;12.10;;
65018;SDS011;66069;51.164;-114.452;2023-07-31T03:38:14;19.67;;;11.23;;
65018;SDS011;66069;51.164;-114.452;2023-07-31T03:40:40;20.42;;;11.45;;
65018;SDS011;66069;51.164;-114.452;2023-07-31T03:43:06;18.15;;;11.45;;
65018;SDS011;66069;51.164;-114.452;2023-07-31T03:45:31;21.35;;;11.57;;
65018;SDS011;66069;51.164;-114.452;2023-07-31T03:47:57;18.63;;;11.63;;
65018;SDS011;66069;51.164;-114.452;2023-07-31T03:50:23;17.98;;;11.20;;
65018;SDS011;66069;51.164;-114.452;2023-07-31T03:52:50;18.92;;;11.95;;
65018;SDS011;66069;51.164;-114.452;2023-07-31T03:55:16;19.42;;;11.68;;
65018;SDS011;66069;51.164;-114.452;2023-07-31T03:57:43;18.98;;;11.00;;
65018;SDS011;66069;51.164;-114.452;2023-07-31T04:00:09;19.75;;;11.57;;
65018;SDS011;66069;51.164;-114.452;2023-07-31T04:02:37;17.90;;;11.35;;
65018;SDS011;66069;51.164;-114.452;2023-07-31T04:05:03;19.10;;;11.02;;
65018;SDS011;66069;51.164;-114.452;2023-07-31T04:07:29;18.27;;;11.05;;
65018;SDS011;66069;51.164;-114.452;2023-07-31T04:09:55;19.45;;;11.50;;
65018;SDS011;66069;51.164;-114.452;2023-07-31T04:12:21;16.30;;;10.55;;
65018;SDS011;66069;51.164;-114.452;2023-07-31T04:14:46;16.52;;;10.35;;
65018;SDS011;66069;51.164;-114.452;2023-07-31T04:17:12;14.13;;;9.40;;
65018;SDS011;66069;51.164;-114.452;2023-07-31T04:19:38;17.05;;;10.60;;
65018;SDS011;66069;51.164;-114.452;2023-07-31T04:22:04;16.20;;;10.20;;
65018;SDS011;66069;51.164;-114.452;2023-07-31T04:24:30;16.15;;;9.80;;
65018;SDS011;66069;51.164;-114.452;2023-07-31T04:26:55;17.42;;;10.30;;
65018;SDS011;66069;51.164;-114.452;2023-07-31T04:29:21;19.17;;;11.50;;
65018;SDS011;66069;51.164;-114.452;2023-07-31T04:31:48;18.45;;;10.80;;
65018;SDS011;66069;51.164;-114.452;2023-07-31T04:34:14;16.70;;;10.25;;
65018;SDS011;66069;51.164;-114.452;2023-07-31T04:36:40;17.42;;;10.30;;
65018;SDS011;66069;51.164;-114.452;2023-07-31T04:39:06;18.48;;;11.40;;
65018;SDS011;66069;51.164;-114.452;2023-07-31T04:41:31;17.38;;;11.13;;
65018;SDS011;66069;51.164;-114.452;2023-07-31T04:43:57;17.00;;;10.13;;
65018;SDS011;66069;51.164;-114.452;2023-07-31T04:46:23;17.60;;;9.60;;
65018;SDS011;66069;51.164;-114.452;2023-07-31T04:48:49;17.30;;;10.38;;
65018;SDS011;66069;51.164;-114.452;2023-07-31T04:51:15;16.70;;;10.18;;
65018;SDS011;66069;51.164;-114.452;2023-07-31T04:53:41;14.85;;;9.63;;
65018;SDS011;66069;51.164;-114.452;2023-07-31T04:56:07;17.63;;;10.25;;
65018;SDS011;66069;51.164;-114.452;2023-07-31T04:58:33;15.73;;;9.77;;
65018;SDS011;66069;51.164;-114.452;2023-07-31T05:00:58;15.68;;;10.15;;
65018;SDS011;66069;51.164;-114.452;2023-07-31T05:03:24;14.80;;;9.30;;
65018;SDS011;66069;51.164;-114.452;2023-07-31T05:05:50;15.43;;;10.27;;
65018;SDS011;66069;51.164;-114.452;2023-07-31T05:08:16;16.75;;;9.38;;
65018;SDS011;66069;51.164;-114.452;2023-07-31T05:10:43;15.60;;;9.90;;
65018;SDS011;66069;51.164;-114.452;2023-07-31T05:13:08;14.65;;;9.88;;
65018;SDS011;66069;51.164;-114.452;2023-07-31T05:15:34;14.05;;;9.15;;
65018;SDS011;66069;51.164;-114.452;2023-07-31T05:18:00;14.48;;;9.63;;
65018;SDS011;66069;51.164;-114.452;2023-07-31T05:20:26;15.00;;;9.23;;
65018;SDS011;66069;51.164;-114.452;2023-07-31T05:22:53;15.43;;;9.27;;
65018;SDS011;66069;51.164;-114.452;2023-07-31T05:25:18;16.83;;;9.13;;
65018;SDS011;66069;51.164;-114.452;2023-07-31T05:27:44;13.85;;;9.43;;
65018;SDS011;66069;51.164;-114.452;2023-07-31T05:30:10;13.48;;;8.82;;
65018;SDS011;66069;51.164;-114.452;2023-07-31T05:32:36;13.73;;;8.75;;
65018;SDS011;66069;51.164;-114.452;2023-07-31T05:35:02;12.35;;;8.52;;
65018;SDS011;66069;51.164;-114.452;2023-07-31T05:37:28;16.58;;;9.73;;
65018;SDS011;66069;51.164;-114.452;2023-07-31T05:39:54;13.88;;;8.80;;
65018;SDS011;66069;51.164;-114.452;2023-07-31T05:42:19;14.43;;;8.90;;
65018;SDS011;66069;51.164;-114.452;2023-07-31T05:44:45;14.40;;;9.13;;
65018;SDS011;66069;51.164;-114.452;2023-07-31T05:47:12;13.85;;;8.48;;
65018;SDS011;66069;51.164;-114.452;2023-07-31T05:49:38;13.63;;;8.70;;
65018;SDS011;66069;51.164;-114.452;2023-07-31T05:52:04;13.32;;;8.15;;
65018;SDS011;66069;51.164;-114.452;2023-07-31T05:54:31;15.82;;;9.10;;
65018;SDS011;66069;51.164;-114.452;2023-07-31T05:56:58;13.45;;;8.25;;
65018;SDS011;66069;51.164;-114.452;2023-07-31T05:59:23;12.98;;;8.48;;
65018;SDS011;66069;51.164;-114.452;2023-07-31T06:01:49;13.70;;;8.68;;
65018;SDS011;66069;51.164;-114.452;2023-07-31T06:04:15;12.40;;;8.15;;
65018;SDS011;66069;51.164;-114.452;2023-07-31T06:06:41;14.52;;;8.63;;
65018;SDS011;66069;51.164;-114.452;2023-07-31T06:09:07;13.43;;;8.55;;
65018;SDS011;66069;51.164;-114.452;2023-07-31T06:11:33;12.65;;;8.13;;
65018;SDS011;66069;51.164;-114.452;2023-07-31T06:13:58;11.18;;;7.32;;
65018;SDS011;66069;51.164;-114.452;2023-07-31T06:16:24;13.80;;;8.30;;
65018;SDS011;66069;51.164;-114.452;2023-07-31T06:18:52;12.00;;;7.55;;
65018;SDS011;66069;51.164;-114.452;2023-07-31T06:21:18;12.35;;;8.15;;
65018;SDS011;66069;51.164;-114.452;2023-07-31T06:23:43;12.25;;;7.97;;
65018;SDS011;66069;51.164;-114.452;2023-07-31T06:26:09;13.52;;;8.38;;
65018;SDS011;66069;51.164;-114.452;2023-07-31T06:28:35;12.20;;;7.55;;
65018;SDS011;66069;51.164;-114.452;2023-07-31T06:31:01;13.00;;;8.52;;
65018;SDS011;66069;51.164;-114.452;2023-07-31T06:33:28;14.35;;;8.02;;
65018;SDS011;66069;51.164;-114.452;2023-07-31T06:35:54;13.25;;;8.23;;
65018;SDS011;66069;51.164;-114.452;2023-07-31T06:38:22;12.73;;;7.82;;
65018;SDS011;66069;51.164;-114.452;2023-07-31T06:40:48;12.73;;;8.00;;
65018;SDS011;66069;51.164;-114.452;2023-07-31T06:43:14;10.43;;;7.30;;
65018;SDS011;66069;51.164;-114.452;2023-07-31T06:45:40;11.55;;;8.10;;
65018;SDS011;66069;51.164;-114.452;2023-07-31T06:48:06;13.30;;;8.15;;
65018;SDS011;66069;51.164;-114.452;2023-07-31T06:50:31;11.77;;;7.78;;
65018;SDS011;66069;51.164;-114.452;2023-07-31T06:52:57;13.57;;;8.27;;
65018;SDS011;66069;51.164;-114.452;2023-07-31T06:55:23;12.20;;;8.05;;
65018;SDS011;66069;51.164;-114.452;2023-07-31T06:57:50;12.65;;;7.82;;
65018;SDS011;66069;51.164;-114.452;2023-07-31T07:00:16;10.18;;;6.80;;
65018;SDS011;66069;51.164;-114.452;2023-07-31T07:02:42;13.57;;;7.68;;
65018;SDS011;66069;51.164;-114.452;2023-07-31T07:05:08;12.70;;;7.95;;
65018;SDS011;66069;51.164;-114.452;2023-07-31T07:07:34;13.13;;;8.27;;
65018;SDS011;66069;51.164;-114.452;2023-07-31T07:10:00;12.18;;;7.70;;
65018;SDS011;66069;51.164;-114.452;2023-07-31T07:12:28;11.95;;;7.25;;
65018;SDS011;66069;51.164;-114.452;2023-07-31T07:14:54;11.73;;;7.25;;
65018;SDS011;66069;51.164;-114.452;2023-07-31T07:17:20;11.27;;;7.53;;
65018;SDS011;66069;51.164;-114.452;2023-07-31T07:19:47;12.43;;;7.28;;
65018;SDS011;66069;51.164;-114.452;2023-07-31T07:22:13;11.90;;;7.38;;
65018;SDS011;66069;51.164;-114.452;2023-07-31T07:24:39;11.10;;;7.50;;
65018;SDS011;66069;51.164;-114.452;2023-07-31T07:27:05;11.38;;;7.05;;
65018;SDS011;66069;51.164;-114.452;2023-07-31T07:29:31;11.45;;;7.63;;
65018;SDS011;66069;51.164;-114.452;2023-07-31T07:31:57;12.40;;;7.38;;
65018;SDS011;66069;51.164;-114.452;2023-07-31T07:34:25;10.05;;;7.03;;
65018;SDS011;66069;51.164;-114.452;2023-07-31T07:36:50;13.55;;;7.60;;
65018;SDS011;66069;51.164;-114.452;2023-07-31T07:39:16;12.35;;;7.78;;
65018;SDS011;66069;51.164;-114.452;2023-07-31T07:41:42;10.02;;;6.70;;
65018;SDS011;66069;51.164;-114.452;2023-07-31T07:44:08;12.68;;;7.43;;
65018;SDS011;66069;51.164;-114.452;2023-07-31T07:46:34;11.38;;;7.10;;
65018;SDS011;66069;51.164;-114.452;2023-07-31T07:49:00;10.85;;;7.18;;
65018;SDS011;66069;51.164;-114.452;2023-07-31T07:51:26;10.13;;;7.47;;
65018;SDS011;66069;51.164;-114.452;2023-07-31T07:53:52;11.85;;;7.55;;
65018;SDS011;66069;51.164;-114.452;2023-07-31T07:56:17;11.70;;;6.97;;
65018;SDS011;66069;51.164;-114.452;2023-07-31T07:58:43;11.98;;;7.50;;
65018;SDS011;66069;51.164;-114.452;2023-07-31T08:01:09;11.70;;;7.40;;
65018;SDS011;66069;51.164;-114.452;2023-07-31T08:03:35;10.85;;;6.97;;
65018;SDS011;66069;51.164;-114.452;2023-07-31T08:06:01;9.73;;;6.93;;
65018;SDS011;66069;51.164;-114.452;2023-07-31T08:08:27;10.77;;;6.75;;
65018;SDS011;66069;51.164;-114.452;2023-07-31T08:10:53;9.93;;;6.53;;
65018;SDS011;66069;51.164;-114.452;2023-07-31T08:13:19;10.52;;;7.13;;
65018;SDS011;66069;51.164;-114.452;2023-07-31T08:15:45;10.55;;;6.78;;
65018;SDS011;66069;51.164;-114.452;2023-07-31T08:18:11;11.10;;;7.50;;
65018;SDS011;66069;51.164;-114.452;2023-07-31T08:20:37;10.20;;;6.88;;
65018;SDS011;66069;51.164;-114.452;2023-07-31T08:23:03;11.48;;;6.82;;
65018;SDS011;66069;51.164;-114.452;2023-07-31T08:25:29;9.43;;;6.80;;
65018;SDS011;66069;51.164;-114.452;2023-07-31T08:27:55;8.75;;;6.30;;
65018;SDS011;66069;51.164;-114.452;2023-07-31T08:30:24;9.77;;;6.45;;
65018;SDS011;66069;51.164;-114.452;2023-07-31T08:32:50;11.05;;;7.10;;
65018;SDS011;66069;51.164;-114.452;2023-07-31T08:35:16;9.85;;;6.38;;
65018;SDS011;66069;51.164;-114.452;2023-07-31T08:37:42;10.70;;;6.78;;
65018;SDS011;66069;51.164;-114.452;2023-07-31T08:40:08;10.43;;;6.57;;
65018;SDS011;66069;51.164;-114.452;2023-07-31T08:42:34;9.50;;;6.15;;
65018;SDS011;66069;51.164;-114.452;2023-07-31T08:45:08;10.45;;;7.03;;
65018;SDS011;66069;51.164;-114.452;2023-07-31T08:47:34;10.15;;;6.68;;
65018;SDS011;66069;51.164;-114.452;2023-07-31T08:50:00;9.02;;;6.05;;
65018;SDS011;66069;51.164;-114.452;2023-07-31T08:52:27;11.80;;;6.97;;
65018;SDS011;66069;51.164;-114.452;2023-07-31T08:54:53;10.98;;;6.30;;
65018;SDS011;66069;51.164;-114.452;2023-07-31T08:57:19;8.55;;;6.20;;
65018;SDS011;66069;51.164;-114.452;2023-07-31T08:59:45;10.50;;;6.68;;
65018;SDS011;66069;51.164;-114.452;2023-07-31T09:02:10;9.32;;;5.93;;
65018;SDS011;66069;51.164;-114.452;2023-07-31T09:04:37;9.55;;;5.82;;
65018;SDS011;66069;51.164;-114.452;2023-07-31T09:07:03;9.90;;;6.65;;
65018;SDS011;66069;51.164;-114.452;2023-07-31T09:09:30;10.65;;;6.65;;
65018;SDS011;66069;51.164;-114.452;2023-07-31T09:11:57;10.93;;;6.65;;
65018;SDS011;66069;51.164;-114.452;2023-07-31T09:14:23;9.07;;;6.05;;
65018;SDS011;66069;51.164;-114.452;2023-07-31T09:16:56;9.73;;;6.10;;
65018;SDS011;66069;51.164;-114.452;2023-07-31T09:19:27;10.88;;;6.65;;
65018;SDS011;66069;51.164;-114.452;2023-07-31T09:21:53;9.07;;;5.85;;
65018;SDS011;66069;51.164;-114.452;2023-07-31T09:24:28;8.80;;;5.82;;
65018;SDS011;66069;51.164;-114.452;2023-07-31T09:26:55;9.50;;;5.82;;
65018;SDS011;66069;51.164;-114.452;2023-07-31T09:29:22;9.15;;;5.78;;
65018;SDS011;66069;51.164;-114.452;2023-07-31T09:31:48;9.38;;;6.03;;
65018;SDS011;66069;51.164;-114.452;2023-07-31T09:34:14;7.95;;;6.28;;
65018;SDS011;66069;51.164;-114.452;2023-07-31T09:36:43;9.73;;;6.38;;
65018;SDS011;66069;51.164;-114.452;2023-07-31T09:39:10;8.83;;;5.60;;
65018;SDS011;66069;51.164;-114.452;2023-07-31T09:41:37;9.07;;;6.25;;
65018;SDS011;66069;51.164;-114.452;2023-07-31T09:44:03;8.77;;;5.72;;
65018;SDS011;66069;51.164;-114.452;2023-07-31T09:46:29;8.48;;;5.82;;
65018;SDS011;66069;51.164;-114.452;2023-07-31T09:49:11;8.60;;;5.70;;
65018;SDS011;66069;51.164;-114.452;2023-07-31T09:51:38;9.38;;;6.15;;
65018;SDS011;66069;51.164;-114.452;2023-07-31T09:54:08;8.93;;;6.03;;
65018;SDS011;66069;51.164;-114.452;2023-07-31T09:56:35;8.57;;;5.35;;
65018;SDS011;66069;51.164;-114.452;2023-07-31T09:59:01;7.85;;;5.68;;
65018;SDS011;66069;51.164;-114.452;2023-07-31T10:01:29;8.98;;;5.60;;
65018;SDS011;66069;51.164;-114.452;2023-07-31T10:03:55;8.23;;;5.60;;
65018;SDS011;66069;51.164;-114.452;2023-07-31T10:06:23;9.50;;;5.97;;
65018;SDS011;66069;51.164;-114.452;2023-07-31T10:08:49;9.15;;;6.00;;
65018;SDS011;66069;51.164;-114.452;2023-07-31T10:11:15;7.75;;;5.53;;
65018;SDS011;66069;51.164;-114.452;2023-07-31T10:13:44;7.95;;;5.43;;
65018;SDS011;66069;51.164;-114.452;2023-07-31T10:16:10;9.23;;;5.88;;
65018;SDS011;66069;51.164;-114.452;2023-07-31T10:18:37;9.13;;;5.80;;
65018;SDS011;66069;51.164;-114.452;2023-07-31T10:21:04;8.75;;;5.68;;
65018;SDS011;66069;51.164;-114.452;2023-07-31T10:23:30;9.10;;;5.82;;
65018;SDS011;66069;51.164;-114.452;2023-07-31T10:25:56;9.60;;;5.68;;
65018;SDS011;66069;51.164;-114.452;2023-07-31T10:28:22;9.52;;;6.07;;
65018;SDS011;66069;51.164;-114.452;2023-07-31T10:30:50;9.70;;;5.88;;
65018;SDS011;66069;51.164;-114.452;2023-07-31T10:33:19;7.32;;;5.32;;
65018;SDS011;66069;51.164;-114.452;2023-07-31T10:35:46;10.43;;;5.85;;
65018;SDS011;66069;51.164;-114.452;2023-07-31T10:38:12;8.45;;;5.45;;
65018;SDS011;66069;51.164;-114.452;2023-07-31T10:40:38;7.97;;;5.47;;
65018;SDS011;66069;51.164;-114.452;2023-07-31T10:43:04;6.95;;;5.00;;
65018;SDS011;66069;51.164;-114.452;2023-07-31T10:45:37;8.85;;;5.50;;
65018;SDS011;66069;51.164;-114.452;2023-07-31T10:48:04;6.90;;;4.68;;
65018;SDS011;66069;51.164;-114.452;2023-07-31T10:50:31;7.35;;;5.15;;
65018;SDS011;66069;51.164;-114.452;2023-07-31T10:53:00;9.52;;;6.07;;
65018;SDS011;66069;51.164;-114.452;2023-07-31T10:55:40;9.30;;;5.40;;
65018;SDS011;66069;51.164;-114.452;2023-07-31T10:58:07;7.68;;;4.95;;
65018;SDS011;66069;51.164;-114.452;2023-07-31T11:00:33;8.00;;;4.95;;
65018;SDS011;66069;51.164;-114.452;2023-07-31T11:03:00;8.30;;;5.38;;
65018;SDS011;66069;51.164;-114.452;2023-07-31T11:08:15;8.00;;;5.22;;
65018;SDS011;66069;51.164;-114.452;2023-07-31T11:10:42;8.02;;;5.32;;
65018;SDS011;66069;51.164;-114.452;2023-07-31T11:13:08;8.18;;;5.25;;
65018;SDS011;66069;51.164;-114.452;2023-07-31T11:15:34;8.05;;;5.00;;
65018;SDS011;66069;51.164;-114.452;2023-07-31T11:18:00;8.60;;;5.30;;
65018;SDS011;66069;51.164;-114.452;2023-07-31T11:20:31;8.68;;;5.15;;
65018;SDS011;66069;51.164;-114.452;2023-07-31T11:22:58;8.27;;;5.35;;
65018;SDS011;66069;51.164;-114.452;2023-07-31T11:25:24;9.80;;;5.60;;
65018;SDS011;66069;51.164;-114.452;2023-07-31T11:27:50;8.05;;;5.60;;
65018;SDS011;66069;51.164;-114.452;2023-07-31T11:30:19;8.68;;;5.20;;
65018;SDS011;66069;51.164;-114.452;2023-07-31T11:32:45;7.75;;;4.97;;
65018;SDS011;66069;51.164;-114.452;2023-07-31T11:35:14;8.18;;;5.10;;
65018;SDS011;66069;51.164;-114.452;2023-07-31T11:37:40;7.65;;;5.30;;
65018;SDS011;66069;51.164;-114.452;2023-07-31T11:40:07;8.90;;;5.25;;
65018;SDS011;66069;51.164;-114.452;2023-07-31T11:42:34;7.85;;;4.95;;
65018;SDS011;66069;51.164;-114.452;2023-07-31T11:45:02;8.13;;;4.85;;
65018;SDS011;66069;51.164;-114.452;2023-07-31T11:47:28;7.97;;;5.38;;
65018;SDS011;66069;51.164;-114.452;2023-07-31T11:49:53;7.47;;;5.28;;
65018;SDS011;66069;51.164;-114.452;2023-07-31T11:52:20;8.65;;;5.30;;
65018;SDS011;66069;51.164;-114.452;2023-07-31T11:54:48;8.18;;;4.78;;
65018;SDS011;66069;51.164;-114.452;2023-07-31T11:57:14;7.25;;;4.40;;
65018;SDS011;66069;51.164;-114.452;2023-07-31T11:59:41;8.60;;;5.35;;
65018;SDS011;66069;51.164;-114.452;2023-07-31T12:02:07;7.38;;;5.10;;
65018;SDS011;66069;51.164;-114.452;2023-07-31T12:04:33;8.18;;;5.38;;
65018;SDS011;66069;51.164;-114.452;2023-07-31T12:07:00;7.72;;;4.55;;
65018;SDS011;66069;51.164;-114.452;2023-07-31T12:09:26;7.20;;;4.90;;
65018;SDS011;66069;51.164;-114.452;2023-07-31T12:11:52;7.65;;;4.60;;
65018;SDS011;66069;51.164;-114.452;2023-07-31T12:14:21;6.68;;;4.43;;
65018;SDS011;66069;51.164;-114.452;2023-07-31T12:16:56;7.85;;;4.72;;
65018;SDS011;66069;51.164;-114.452;2023-07-31T12:19:22;6.68;;;4.55;;
65018;SDS011;66069;51.164;-114.452;2023-07-31T12:21:49;6.57;;;4.45;;
65018;SDS011;66069;51.164;-114.452;2023-07-31T12:24:14;6.20;;;4.38;;
65018;SDS011;66069;51.164;-114.452;2023-07-31T12:26:45;6.35;;;4.00;;
65018;SDS011;66069;51.164;-114.452;2023-07-31T12:29:11;7.05;;;4.53;;
65018;SDS011;66069;51.164;-114.452;2023-07-31T12:31:36;6.70;;;4.47;;
65018;SDS011;66069;51.164;-114.452;2023-07-31T12:34:02;6.88;;;4.18;;
65018;SDS011;66069;51.164;-114.452;2023-07-31T12:36:28;6.68;;;4.47;;
65018;SDS011;66069;51.164;-114.452;2023-07-31T12:38:57;7.22;;;4.57;;
65018;SDS011;66069;51.164;-114.452;2023-07-31T12:41:23;6.70;;;4.28;;
65018;SDS011;66069;51.164;-114.452;2023-07-31T12:43:49;6.32;;;4.25;;
65018;SDS011;66069;51.164;-114.452;2023-07-31T12:46:15;6.88;;;4.70;;
65018;SDS011;66069;51.164;-114.452;2023-07-31T12:48:42;6.80;;;4.50;;
65018;SDS011;66069;51.164;-114.452;2023-07-31T12:51:08;7.25;;;4.20;;
65018;SDS011;66069;51.164;-114.452;2023-07-31T12:53:34;6.80;;;4.07;;
65018;SDS011;66069;51.164;-114.452;2023-07-31T12:56:00;6.13;;;4.45;;
65018;SDS011;66069;51.164;-114.452;2023-07-31T12:58:26;6.18;;;4.20;;
65018;SDS011;66069;51.164;-114.452;2023-07-31T13:00:52;6.20;;;4.00;;
65018;SDS011;66069;51.164;-114.452;2023-07-31T13:03:18;7.47;;;4.40;;
65018;SDS011;66069;51.164;-114.452;2023-07-31T13:05:44;7.05;;;4.72;;
65018;SDS011;66069;51.164;-114.452;2023-07-31T13:08:10;7.80;;;4.50;;
65018;SDS011;66069;51.164;-114.452;2023-07-31T13:10:37;6.55;;;4.43;;
65018;SDS011;66069;51.164;-114.452;2023-07-31T13:13:02;6.10;;;4.22;;
65018;SDS011;66069;51.164;-114.452;2023-07-31T13:15:28;6.45;;;4.50;;
65018;SDS011;66069;51.164;-114.452;2023-07-31T13:17:54;6.40;;;4.10;;
65018;SDS011;66069;51.164;-114.452;2023-07-31T13:20:20;7.28;;;4.80;;
65018;SDS011;66069;51.164;-114.452;2023-07-31T13:22:46;7.05;;;4.60;;
65018;SDS011;66069;51.164;-114.452;2023-07-31T13:25:12;6.80;;;3.95;;
65018;SDS011;66069;51.164;-114.452;2023-07-31T13:27:38;7.78;;;4.10;;
65018;SDS011;66069;51.164;-114.452;2023-07-31T13:30:04;6.28;;;4.20;;
65018;SDS011;66069;51.164;-114.452;2023-07-31T13:32:30;6.80;;;4.35;;
65018;SDS011;66069;51.164;-114.452;2023-07-31T13:34:56;6.43;;;4.22;;
65018;SDS011;66069;51.164;-114.452;2023-07-31T13:37:22;6.45;;;4.18;;
65018;SDS011;66069;51.164;-114.452;2023-07-31T13:39:48;5.97;;;4.28;;
65018;SDS011;66069;51.164;-114.452;2023-07-31T13:42:13;6.68;;;4.53;;
65018;SDS011;66069;51.164;-114.452;2023-07-31T13:44:39;6.72;;;4.43;;
65018;SDS011;66069;51.164;-114.452;2023-07-31T13:47:06;6.45;;;4.32;;
65018;SDS011;66069;51.164;-114.452;2023-07-31T13:49:32;7.57;;;4.47;;
65018;SDS011;66069;51.164;-114.452;2023-07-31T13:51:58;6.30;;;4.35;;
65018;SDS011;66069;51.164;-114.452;2023-07-31T13:54:23;5.75;;;3.85;;
65018;SDS011;66069;51.164;-114.452;2023-07-31T13:56:49;6.10;;;3.90;;